Time;durP1;ratioP1;P1;durP2;ratioP2;P2;SDS_P1;SDS_P2;PMS_P1;PMS_P2;Temp;Humidity;BMP_temperature;BMP_pressure;BME280_temperature;BME280_humidity;BME280_pressure;Samples;Min_cycle;Max_cycle;Signal;HPM_P1;HPM_P2
2021/06/25 00:00:37;;;;;;;27.73;24.33;;;14.90;99.90;;;15.39;73.36;101814.66;5116640;28;20052;-72
2021/06/25 00:03:06;;;;;;;29.10;23.55;;;15.00;99.90;;;15.55;73.25;101818.09;5116010;28;20089;-71
2021/06/25 00:05:35;;;;;;;26.25;22.98;;;15.10;99.90;;;15.60;72.76;101811.81;5116263;28;20108;-72
2021/06/25 00:08:04;;;;;;;25.77;22.95;;;15.20;99.90;;;15.72;72.91;101813.47;5116148;28;20040;-72
2021/06/25 00:10:33;;;;;;;26.35;23.45;;;15.20;99.90;;;15.58;72.45;101813.63;5116134;28;20046;-69
2021/06/25 00:13:02;;;;;;;26.30;22.92;;;15.20;99.90;;;15.37;74.00;101808.44;5097867;28;20047;-71
2021/06/25 00:15:32;;;;;;;28.35;24.38;;;14.90;99.90;;;15.44;73.33;101809.34;5115667;28;20047;-71
2021/06/25 00:18:01;;;;;;;28.20;23.48;;;15.00;99.90;;;15.13;72.92;101820.22;5115945;28;20047;-71
2021/06/25 00:20:30;;;;;;;32.63;23.40;;;14.70;99.90;;;15.10;73.93;101811.34;5115410;28;20397;-70
2021/06/25 00:22:59;;;;;;;25.73;22.90;;;14.60;99.90;;;14.85;74.12;101808.00;5115889;28;20051;-70
2021/06/25 00:25:28;;;;;;;24.65;22.13;;;14.40;99.90;;;14.46;74.98;101797.56;5096604;28;20059;-70
2021/06/25 00:27:56;;;;;;;26.48;22.80;;;14.10;99.90;;;14.24;75.71;101798.56;5115697;28;20036;-71
2021/06/25 00:30:25;;;;;;;25.70;22.33;;;13.80;99.90;;;14.35;75.45;101786.09;5115512;28;20524;-70
2021/06/25 00:32:56;;;;;;;24.75;20.45;;;13.90;99.90;;;14.27;75.74;101793.22;5115416;28;20048;-71
2021/06/25 00:35:24;;;;;;;24.80;21.25;;;13.80;99.90;;;14.36;75.40;101779.91;5115824;28;20051;-71
2021/06/25 00:37:53;;;;;;;22.42;20.02;;;13.90;99.90;;;14.43;74.82;101777.19;5115360;28;20048;-71
2021/06/25 00:40:22;;;;;;;21.38;19.08;;;14.00;99.90;;;14.48;75.35;101763.84;5115819;28;20493;-71
2021/06/25 00:42:50;;;;;;;20.65;18.35;;;14.00;99.90;;;14.51;75.39;101766.50;5097202;28;20039;-70
2021/06/25 00:45:21;;;;;;;20.80;17.55;;;14.10;99.90;;;14.68;74.48;101767.28;5115442;28;20040;-71
2021/06/25 00:47:51;;;;;;;20.95;18.50;;;14.30;99.90;;;14.82;75.05;101760.06;5115407;28;20035;-71
2021/06/25 00:50:25;;;;;;;18.98;17.08;;;14.40;99.90;;;14.94;74.50;101762.63;5115197;28;20047;-71
2021/06/25 00:52:58;;;;;;;19.90;17.52;;;14.50;99.90;;;15.11;73.82;101767.84;5097344;28;20138;-71
2021/06/25 00:55:29;;;;;;;19.85;17.75;;;14.70;99.90;;;15.04;73.23;101758.13;5115254;28;20048;-70
2021/06/25 00:57:58;;;;;;;20.17;17.73;;;14.70;99.90;;;14.94;74.19;101765.28;5096957;28;20492;-70
2021/06/25 01:00:26;;;;;;;20.77;17.70;;;14.60;99.90;;;15.03;74.25;101770.56;5096811;28;20036;-70
2021/06/25 01:02:55;;;;;;;18.88;16.98;;;14.60;99.90;;;15.10;74.18;101761.59;5114911;28;20107;-70
2021/06/25 01:05:25;;;;;;;22.38;17.65;;;14.70;99.90;;;15.36;73.75;101772.94;5114557;28;20090;-71
2021/06/25 01:07:53;;;;;;;20.10;17.02;;;14.90;99.90;;;15.54;73.42;101758.56;5114691;28;20413;-71
2021/06/25 01:10:22;;;;;;;17.65;15.85;;;15.20;99.90;;;15.56;72.48;101767.44;5114950;28;20093;-71
2021/06/25 01:12:52;;;;;;;17.60;16.00;;;15.30;99.90;;;15.51;72.30;101769.25;5114966;28;20472;-70
2021/06/25 01:15:20;;;;;;;17.75;15.98;;;15.20;99.90;;;15.57;72.42;101755.84;5115091;28;20048;-71
2021/06/25 01:17:49;;;;;;;19.27;16.67;;;15.20;99.90;;;15.60;72.78;101758.47;5114775;28;20051;-71
2021/06/25 01:20:23;;;;;;;17.90;16.02;;;15.30;99.90;;;15.63;72.68;101754.91;5096188;28;20051;-70
2021/06/25 01:22:54;;;;;;;18.17;16.27;;;15.30;99.90;;;15.73;72.50;101751.25;5114783;28;20407;-71
2021/06/25 01:25:25;;;;;;;18.38;16.48;;;15.40;99.90;;;15.74;73.20;101745.88;5096438;28;20392;-71
2021/06/25 01:27:59;;;;;;;17.45;15.38;;;15.40;99.90;;;15.78;73.36;101750.28;5114907;28;20047;-71
2021/06/25 01:30:32;;;;;;;17.58;15.73;;;15.40;99.90;;;15.74;73.39;101745.00;5095797;28;20074;-71
2021/06/25 01:33:05;;;;;;;18.98;16.70;;;15.30;99.90;;;15.80;73.56;101739.59;5114242;28;20408;-70
2021/06/25 01:35:35;;;;;;;18.15;15.55;;;15.40;99.90;;;15.73;73.78;101738.78;5114536;28;20043;-71
2021/06/25 01:38:06;;;;;;;18.13;16.27;;;15.30;99.90;;;15.71;74.61;101737.03;5114435;28;20074;-70
2021/06/25 01:40:36;;;;;;;18.25;16.38;;;15.30;99.90;;;15.58;74.76;101738.94;5114379;28;20047;-71
2021/06/25 01:43:07;;;;;;;18.55;16.67;;;15.30;99.90;;;15.68;74.92;101742.41;5114167;28;20047;-71
2021/06/25 01:45:37;;;;;;;;;;;15.20;99.90;;;15.72;74.53;101714.78;5096610;28;20047;-71
2021/06/25 01:48:07;;;;;;;18.97;15.80;;;15.40;99.90;;;15.97;73.93;101741.16;5114203;28;19953;-71
2021/06/25 01:50:39;;;;;;;18.55;15.57;;;15.50;99.90;;;15.52;73.88;101647.47;5113974;28;20432;-71
2021/06/25 01:53:11;;;;;;;18.50;16.15;;;15.60;99.90;;;16.07;74.06;101745.47;5114124;28;20050;-71
2021/06/25 01:55:42;;;;;;;17.33;15.52;;;15.70;99.90;;;16.19;74.00;101734.63;5095744;28;20044;-71
2021/06/25 01:58:12;;;;;;;18.75;16.40;;;15.80;99.90;;;16.11;74.51;101731.19;5114103;28;20039;-71
2021/06/25 02:00:43;;;;;;;17.60;15.85;;;15.80;99.90;;;16.21;74.95;101731.94;5114110;28;20065;-70
2021/06/25 02:03:14;;;;;;;17.17;15.40;;;15.80;99.90;;;16.30;75.01;101736.28;5095691;28;20073;-71
2021/06/25 02:05:43;;;;;;;17.20;15.48;;;15.90;99.90;;;16.30;75.05;101731.81;5095716;28;20532;-71
2021/06/25 02:08:13;;;;;;;17.77;15.80;;;15.90;99.90;;;16.32;74.50;101729.13;5113805;28;20433;-71
2021/06/25 02:10:41;;;;;;;19.35;17.20;;;16.00;99.90;;;16.34;74.38;101728.19;5113596;28;20101;-71
2021/06/25 02:13:10;;;;;;;18.30;16.70;;;16.00;99.90;;;16.34;74.18;101727.34;5113603;28;20039;-71
2021/06/25 02:15:39;;;;;;;16.98;15.23;;;16.00;99.90;;;16.38;74.05;101729.91;5114051;28;20106;-71
2021/06/25 02:18:07;;;;;;;18.70;16.75;;;16.10;99.90;;;16.39;73.92;101728.13;5113706;28;20055;-71
2021/06/25 02:20:35;;;;;;;18.60;16.65;;;16.10;99.90;;;16.43;73.84;101728.09;5113612;28;20055;-71
2021/06/25 02:23:04;;;;;;;18.48;16.20;;;16.10;99.90;;;16.43;73.99;101722.75;5113376;28;20044;-71
2021/06/25 02:25:34;;;;;;;19.42;17.40;;;16.10;99.90;;;16.43;74.02;101717.41;5113304;28;20481;-71
2021/06/25 02:28:02;;;;;;;18.17;16.15;;;16.20;99.90;;;16.39;74.57;101731.69;5095244;28;20108;-71
2021/06/25 02:30:31;;;;;;;19.73;17.73;;;16.10;99.90;;;16.42;74.42;101712.94;5113506;28;20110;-71
2021/06/25 02:33:00;;;;;;;23.48;17.27;;;16.10;99.90;;;16.30;74.58;101705.09;5113530;28;20358;-71
2021/06/25 02:35:29;;;;;;;21.92;17.10;;;16.10;99.90;;;16.26;74.74;101704.28;5113202;28;20047;-71
2021/06/25 02:37:58;;;;;;;18.92;17.02;;;16.00;99.90;;;16.37;74.71;101701.47;5095401;28;20055;-71
2021/06/25 02:40:27;;;;;;;18.85;16.90;;;16.00;99.90;;;16.45;74.48;101699.56;5113168;28;20405;-71
2021/06/25 02:42:57;;;;;;;19.15;17.25;;;16.10;99.90;;;16.51;74.36;101703.97;5112444;28;20493;-71
2021/06/25 02:45:25;;;;;;;21.30;17.97;;;16.20;99.90;;;16.57;74.51;101703.88;5113741;28;20046;-71
2021/06/25 02:47:54;;;;;;;20.33;18.10;;;16.30;99.90;;;16.60;74.62;101709.16;5113333;28;20470;-71
2021/06/25 02:50:22;;;;;;;19.42;17.38;;;16.30;99.90;;;16.63;74.64;101696.63;5113282;28;20043;-71
2021/06/25 02:52:51;;;;;;;21.50;18.33;;;16.30;99.90;;;16.60;74.46;101693.13;5113367;28;20043;-71
2021/06/25 02:55:20;;;;;;;18.85;16.95;;;16.30;99.90;;;16.41;74.00;101649.78;5113163;28;20400;-71
2021/06/25 02:57:49;;;;;;;20.20;18.10;;;16.30;99.90;;;16.62;73.74;101694.88;5113267;28;20039;-71
2021/06/25 03:00:20;;;;;;;25.60;18.38;;;16.30;99.90;;;16.66;72.89;101688.56;5113512;28;20122;-71
2021/06/25 03:02:48;;;;;;;21.45;19.17;;;16.40;99.90;;;16.70;73.02;101689.41;5112982;28;20047;-71
2021/06/25 03:05:18;;;;;;;21.30;19.08;;;16.40;99.90;;;16.50;73.03;101646.97;5113727;28;20126;-71
2021/06/25 03:07:47;;;;;;;20.40;18.30;;;16.40;99.90;;;16.76;73.44;101684.81;5113461;28;20052;-71
2021/06/25 03:10:15;;;;;;;21.48;18.20;;;16.50;99.90;;;16.88;73.32;101681.06;5094801;28;20491;-71
2021/06/25 03:12:44;;;;;;;20.58;18.48;;;16.50;99.90;;;16.94;72.72;101673.81;5113176;28;20035;-71
2021/06/25 03:15:13;;;;;;;22.05;19.70;;;16.70;99.90;;;17.05;72.23;101687.00;5094864;28;20067;-71
2021/06/25 03:17:43;;;;;;;20.83;18.63;;;16.70;99.90;;;17.11;71.54;101678.88;5112812;28;20557;-71
2021/06/25 03:20:14;;;;;;;21.33;19.13;;;16.80;99.90;;;17.18;71.40;101677.84;5094517;28;20040;-70
2021/06/25 03:22:42;;;;;;;21.55;18.55;;;16.90;99.90;;;17.17;71.97;101676.06;5113067;28;20051;-71
2021/06/25 03:25:12;;;;;;;22.75;20.35;;;16.90;99.90;;;17.26;71.61;101681.28;5112781;28;20051;-70
2021/06/25 03:27:40;;;;;;;22.95;19.63;;;17.00;99.90;;;17.34;71.78;101681.13;5112618;28;20507;-71
2021/06/25 03:30:11;;;;;;;22.60;19.73;;;17.00;99.90;;;17.40;72.40;101678.34;5094659;28;20043;-71
2021/06/25 03:32:39;;;;;;;;;;;17.00;99.90;;;17.38;72.43;101682.81;5113478;28;20052;-71
2021/06/25 03:35:11;;;;;;;28.77;23.23;;;17.10;99.90;;;17.36;71.89;101671.28;5112884;28;20265;-71
2021/06/25 03:37:40;;;;;;;25.80;22.38;;;17.10;99.90;;;17.40;71.42;101673.84;5112721;28;20048;-71
2021/06/25 03:40:11;;;;;;;28.33;22.40;;;17.10;99.90;;;17.42;71.07;101672.03;5112943;28;20454;-71
2021/06/25 03:42:41;;;;;;;29.17;23.17;;;17.10;99.90;;;17.50;70.67;101669.25;5094929;28;20108;-71
2021/06/25 03:45:13;;;;;;;25.77;23.10;;;17.10;99.90;;;17.53;70.01;101667.41;5094417;28;20048;-71
2021/06/25 03:47:43;;;;;;;29.40;23.35;;;17.10;99.90;;;17.47;69.78;101671.94;5112897;28;20444;-71
2021/06/25 03:50:14;;;;;;;34.73;24.03;;;17.10;99.90;;;17.50;69.44;101666.59;5112729;28;20047;-71
2021/06/25 03:52:45;;;;;;;28.52;23.60;;;17.20;99.90;;;17.44;69.33;101654.16;5094563;28;20044;-71
2021/06/25 03:55:14;;;;;;;28.10;24.27;;;17.10;99.90;;;17.49;69.39;101654.09;5115862;28;20047;-71
2021/06/25 03:57:43;;;;;;;34.45;26.08;;;17.10;99.90;;;17.53;69.20;101653.13;5098085;28;20040;-71
2021/06/25 04:00:16;;;;;;;34.15;26.67;;;17.10;99.90;;;17.54;69.39;101650.41;5116449;28;20055;-71
2021/06/25 04:02:45;;;;;;;30.60;25.85;;;17.20;99.90;;;17.55;69.54;101645.94;5116330;28;20055;-71
2021/06/25 04:05:16;;;;;;;36.95;27.60;;;17.20;99.90;;;17.36;70.27;101645.41;5098024;28;20447;-71
2021/06/25 04:07:45;;;;;;;33.78;26.30;;;17.10;99.90;;;17.25;69.94;101599.25;5116320;28;20109;-71
2021/06/25 04:10:14;;;;;;;36.05;27.23;;;17.10;99.90;;;17.41;70.06;101618.56;5116024;28;20393;-71
2021/06/25 04:12:43;;;;;;;34.97;28.70;;;17.20;99.90;;;17.55;70.20;101637.94;5116163;28;20043;-71
2021/06/25 04:15:12;;;;;;;35.80;28.35;;;17.20;99.90;;;17.55;70.27;101640.59;5116149;28;20039;-71
2021/06/25 04:17:40;;;;;;;33.22;26.25;;;17.20;99.90;;;17.63;70.22;101639.53;5116070;28;20118;-71
2021/06/25 04:20:11;;;;;;;37.53;26.17;;;17.20;99.90;;;17.69;70.48;101641.22;5097471;28;20108;-69
2021/06/25 04:22:41;;;;;;;;;;;17.30;99.90;;;17.75;70.40;101641.09;5098070;28;20052;-72
2021/06/25 04:25:11;;;;;;;37.92;27.98;;;17.40;99.90;;;17.74;70.52;101639.31;5116070;28;19927;-72
2021/06/25 04:27:39;;;;;;;37.55;27.38;;;17.40;99.90;;;17.83;70.64;101641.75;5116017;28;20047;-72
2021/06/25 04:30:11;;;;;;;37.78;29.27;;;17.40;99.90;;;17.82;71.02;101623.97;5115386;28;20588;-72
2021/06/25 04:32:40;;;;;;;42.95;29.85;;;17.40;99.90;;;17.87;71.38;101628.28;5115802;28;20043;-72
2021/06/25 04:35:10;;;;;;;40.22;31.05;;;17.40;99.90;;;17.90;71.52;101628.22;5115610;28;20074;-72
2021/06/25 04:37:38;;;;;;;43.83;31.60;;;17.50;99.90;;;17.93;71.71;101616.56;5115505;28;20051;-72
2021/06/25 04:40:10;;;;;;;44.05;31.40;;;17.60;99.90;;;17.91;71.94;101613.03;5115550;28;20499;-72
2021/06/25 04:42:40;;;;;;;45.03;32.92;;;17.60;99.90;;;17.86;72.36;101617.63;5115587;28;20065;-72
2021/06/25 04:45:11;;;;;;;45.08;33.03;;;17.60;99.90;;;17.99;73.04;101620.00;5097505;28;20047;-72
2021/06/25 04:47:41;;;;;;;47.65;33.80;;;17.60;99.90;;;18.02;73.13;101619.06;5115526;28;20370;-72
2021/06/25 04:50:10;;;;;;;46.05;33.78;;;17.60;99.90;;;18.12;73.49;101628.59;5096923;28;20066;-72
2021/06/25 04:52:39;;;;;;;51.90;35.05;;;17.70;99.90;;;18.14;73.67;101613.38;5115100;28;20066;-72
2021/06/25 04:55:10;;;;;;;47.25;34.05;;;17.80;99.90;;;18.01;73.90;101593.19;5115267;28;20036;-72
2021/06/25 04:57:39;;;;;;;46.97;35.33;;;17.80;99.90;;;18.21;74.16;101627.53;5115547;28;20096;-72
2021/06/25 05:00:09;;;;;;;48.00;34.90;;;17.80;99.90;;;18.23;74.37;101614.97;5115200;28;20123;-72
2021/06/25 05:02:38;;;;;;;47.33;34.67;;;17.80;99.90;;;18.29;74.69;101615.69;5114939;28;20485;-71
2021/06/25 05:05:08;;;;;;;50.88;36.95;;;17.90;99.90;;;18.33;74.96;101611.16;5114327;28;20044;-72
2021/06/25 05:07:36;;;;;;;49.88;35.63;;;17.90;99.90;;;18.36;74.96;101608.41;5114751;28;20493;-72
2021/06/25 05:10:08;;;;;;;49.67;35.90;;;17.90;99.90;;;18.43;75.37;101613.59;5114621;28;20572;-72
2021/06/25 05:12:36;;;;;;;49.20;36.67;;;18.00;99.90;;;18.43;75.70;101605.56;5114706;28;20047;-72
2021/06/25 05:15:06;;;;;;;53.92;36.40;;;18.00;99.90;;;18.49;75.76;101604.53;5096531;28;20114;-72
2021/06/25 05:17:36;;;;;;;50.92;36.38;;;18.10;99.90;;;18.54;75.99;101608.84;5114683;28;20427;-72
2021/06/25 05:20:06;;;;;;;49.17;35.38;;;18.10;99.90;;;18.58;76.03;101613.22;5114683;28;20050;-72
2021/06/25 05:22:35;;;;;;;56.58;35.58;;;18.20;99.90;;;18.59;76.22;101606.06;5114871;28;20056;-72
2021/06/25 05:25:03;;;;;;;52.22;34.78;;;18.20;99.90;;;18.60;76.42;101602.47;5114722;28;20460;-72
2021/06/25 05:27:33;;;;;;;50.63;34.50;;;18.20;99.90;;;18.65;76.24;101603.22;5114797;28;20052;-71
2021/06/25 05:30:02;;;;;;;55.65;35.42;;;18.30;99.90;;;18.63;76.46;101616.69;5114747;28;20036;-71
2021/06/25 05:32:30;;;;;;;49.70;34.60;;;18.20;99.90;;;18.61;76.75;101596.19;5096249;28;20089;-71
2021/06/25 05:34:59;;;;;;;51.03;34.70;;;18.30;99.90;;;18.56;77.40;101600.78;5114487;28;20039;-71
2021/06/25 05:37:27;;;;;;;53.80;35.70;;;18.20;99.90;;;18.58;77.62;101593.59;5114411;28;20032;-71
2021/06/25 05:39:56;;;;;;;54.17;35.65;;;18.20;99.90;;;18.40;77.31;101584.19;5095870;28;20039;-71
2021/06/25 05:42:24;;;;;;;46.03;33.65;;;18.10;99.90;;;18.44;77.29;101596.63;5113908;28;20042;-71
2021/06/25 05:44:54;;;;;;;51.78;35.67;;;18.10;99.90;;;18.36;77.29;101603.03;5114186;28;20046;-71
2021/06/25 05:47:23;;;;;;;48.43;34.70;;;18.00;99.90;;;18.37;77.20;101597.63;5095951;28;20148;-71
2021/06/25 05:49:51;;;;;;;51.83;33.83;;;18.00;99.90;;;18.33;77.42;101598.63;5114105;28;20285;-71
2021/06/25 05:52:20;;;;;;;49.08;34.20;;;17.90;99.90;;;18.35;77.27;101601.31;5114149;28;20047;-71
2021/06/25 05:54:48;;;;;;;53.60;35.63;;;17.90;99.90;;;18.27;77.43;101600.59;5114100;28;20044;-71
2021/06/25 05:57:17;;;;;;;47.08;33.42;;;17.90;99.90;;;18.40;77.64;101599.38;5114364;28;20096;-71
2021/06/25 05:59:45;;;;;;;48.20;33.42;;;18.00;99.90;;;18.43;76.97;101613.59;5114027;28;20047;-71
2021/06/25 06:02:15;;;;;;;46.30;33.05;;;18.00;99.90;;;18.39;76.94;101603.84;5095696;28;20439;-71
2021/06/25 06:04:43;;;;;;;48.28;31.83;;;18.00;99.90;;;18.41;77.07;101602.00;5113924;28;20031;-71
2021/06/25 06:07:13;;;;;;;44.63;29.75;;;18.00;99.90;;;18.42;76.62;101600.22;5113929;28;20043;-71
2021/06/25 06:09:41;;;;;;;43.00;29.27;;;18.10;99.90;;;18.51;76.08;101614.31;5113881;28;20108;-71
2021/06/25 06:12:11;;;;;;;38.92;28.13;;;18.10;99.90;;;18.39;75.14;101600.31;5113491;28;20457;-71
2021/06/25 06:14:39;;;;;;;44.28;30.20;;;18.10;99.90;;;18.34;74.58;101604.88;5113893;28;20035;-71
2021/06/25 06:17:08;;;;;;;42.42;28.90;;;18.00;99.90;;;18.40;74.68;101602.94;5113332;28;20078;-71
2021/06/25 06:19:42;;;;;;;37.88;27.55;;;18.10;99.90;;;18.44;74.47;101614.50;5113760;28;20051;-71
2021/06/25 06:33:17;;;;;;;39.88;26.40;;;18.00;99.90;;;18.32;73.74;101614.75;5113370;28;20530;-71
2021/06/25 06:35:48;;;;;;;35.33;25.58;;;17.90;99.90;;;18.26;74.21;101625.59;5113480;28;20059;-71
2021/06/25 06:38:17;;;;;;;34.15;25.75;;;17.90;99.90;;;18.09;73.95;101601.91;5113171;28;20047;-72
2021/06/25 06:40:46;;;;;;;35.15;25.27;;;17.80;99.90;;;18.11;73.92;101620.63;5113416;28;20039;-72
2021/06/25 06:43:14;;;;;;;40.05;26.67;;;17.70;99.90;;;18.18;74.00;101617.75;5113339;28;20413;-72
2021/06/25 06:45:43;;;;;;;34.53;24.75;;;17.80;99.90;;;18.01;74.14;101598.53;5113292;28;20115;-72
2021/06/25 06:48:11;;;;;;;41.75;25.20;;;17.70;99.90;;;18.16;74.13;101618.69;5113385;28;20392;-73
2021/06/25 06:50:40;;;;;;;34.53;26.00;;;17.80;99.90;;;18.22;74.55;101608.75;5095008;28;20051;-72
2021/06/25 06:53:10;;;;;;;38.22;25.83;;;17.80;99.90;;;18.11;74.67;101594.72;5113289;28;20122;-72
2021/06/25 06:55:43;;;;;;;34.83;24.67;;;17.80;99.90;;;18.31;74.35;101604.97;5113056;28;20050;-73
2021/06/25 06:58:12;;;;;;;34.35;24.40;;;17.80;99.90;;;18.24;74.18;101584.59;5113143;28;20071;-73
2021/06/25 07:00:41;;;;;;;37.20;25.42;;;17.90;99.90;;;18.41;74.29;101599.31;5113285;28;20093;-73
2021/06/25 07:03:25;;;;;;;34.25;24.02;;;18.00;99.90;;;18.43;74.36;101591.28;5095003;28;20044;-73
2021/06/25 07:05:54;;;;;;;34.58;24.05;;;18.00;99.90;;;18.33;74.15;101595.94;5094926;28;20480;-73
2021/06/25 07:08:24;;;;;;;37.58;24.10;;;18.00;99.90;;;18.48;74.61;101595.63;5113244;28;20393;-73
2021/06/25 07:10:52;;;;;;;34.60;24.70;;;18.10;99.90;;;18.56;74.46;101598.13;5112865;28;20043;-73
2021/06/25 07:13:21;;;;;;;35.47;24.38;;;18.10;99.90;;;18.58;74.65;101599.81;5112871;28;20289;-73
2021/06/25 07:15:50;;;;;;;35.30;24.48;;;18.10;99.90;;;18.64;74.67;101601.47;5113156;28;20044;-73
2021/06/25 07:18:18;;;;;;;34.58;23.20;;;18.20;99.90;;;18.76;74.90;101595.78;5094726;28;20036;-73
2021/06/25 07:20:47;;;;;;;30.42;23.30;;;18.30;99.90;;;18.74;74.29;101614.59;5112740;28;20481;-73
2021/06/25 07:23:15;;;;;;;32.38;22.60;;;18.40;99.90;;;18.81;74.04;101600.09;5113034;28;20043;-71
2021/06/25 07:25:46;;;;;;;33.97;23.17;;;18.40;99.90;;;18.92;74.02;101590.00;5112650;28;20074;-70
2021/06/25 07:28:14;;;;;;;33.67;23.48;;;18.50;99.90;;;19.20;74.39;101597.28;5113173;28;20043;-71
2021/06/25 07:30:43;;;;;;;33.97;22.90;;;18.80;99.90;;;19.44;73.54;101597.47;5098624;28;20039;-71
2021/06/25 07:33:12;;;;;;;31.15;23.35;;;19.00;99.90;;;19.48;72.41;101600.94;5098720;28;20096;-72
2021/06/25 07:35:40;;;;;;;34.67;22.67;;;19.10;99.90;;;19.54;72.26;101608.81;5116541;28;20096;-72
2021/06/25 07:38:09;;;;;;;33.30;22.38;;;19.10;99.90;;;19.60;72.18;101609.53;5098545;28;20096;-72
2021/06/25 07:40:37;;;;;;;28.27;21.73;;;19.20;99.90;;;19.56;71.75;101617.72;5117061;28;20048;-72
2021/06/25 07:43:07;;;;;;;27.88;22.05;;;19.20;99.90;;;19.68;72.27;101609.28;5116743;28;20055;-72
2021/06/25 07:45:36;;;;;;;30.27;22.30;;;19.30;99.90;;;19.83;72.13;101606.13;5116610;28;20083;-72
2021/06/25 07:48:05;;;;;;;33.67;22.38;;;19.40;99.90;;;19.77;71.75;101639.44;5116611;28;20412;-71
2021/06/25 07:50:34;;;;;;;30.75;21.50;;;19.40;99.90;;;19.64;71.88;101591.53;5116503;28;20421;-72
2021/06/25 07:53:06;;;;;;;28.38;21.40;;;19.40;99.90;;;19.83;72.27;101608.81;5098183;28;20143;-71
2021/06/25 07:55:42;;;;;;;29.40;22.83;;;19.40;99.90;;;19.91;71.80;101619.31;5098090;28;20043;-72
2021/06/25 07:58:17;;;;;;;31.60;22.10;;;19.50;99.90;;;19.94;71.38;101613.88;5116434;28;20039;-71
2021/06/25 08:00:46;;;;;;;29.80;22.48;;;19.50;99.90;;;19.94;71.89;101609.38;5116441;28;20044;-71
2021/06/25 08:03:14;;;;;;;28.92;22.15;;;19.60;99.90;;;19.99;71.54;101601.19;5116353;28;20048;-72
2021/06/25 08:05:43;;;;;;;30.67;22.77;;;19.60;99.90;;;20.00;71.73;101601.13;5116183;28;20130;-72
2021/06/25 08:08:11;;;;;;;30.80;22.38;;;19.60;99.90;;;20.10;71.66;101610.66;5116284;28;20055;-72
2021/06/25 08:10:40;;;;;;;31.63;22.67;;;19.70;99.90;;;20.11;71.57;101615.09;5116222;28;20458;-72
2021/06/25 08:13:09;;;;;;;33.20;22.63;;;19.70;99.90;;;19.90;71.30;101575.47;5097754;28;20044;-71
2021/06/25 08:15:40;;;;;;;35.60;22.95;;;19.70;99.90;;;20.01;71.66;101578.72;5115793;28;20043;-71
2021/06/25 08:18:08;;;;;;;32.78;21.90;;;19.70;99.90;;;20.30;71.60;101597.50;5116084;28;20051;-72
2021/06/25 08:20:37;;;;;;;32.92;21.95;;;19.90;99.90;;;20.36;70.83;101594.59;5115370;28;20055;-71
2021/06/25 08:23:05;;;;;;;34.25;22.90;;;20.00;99.90;;;20.61;71.14;101608.09;5097629;28;20100;-72
2021/06/25 08:25:34;;;;;;;30.50;21.20;;;20.20;99.90;;;20.77;70.93;101590.50;5115998;28;20116;-71
2021/06/25 08:28:03;;;;;;;31.17;22.02;;;20.40;99.90;;;20.94;70.44;101601.56;5097563;28;20040;-73
2021/06/25 08:30:32;;;;;;;32.90;23.25;;;20.50;99.90;;;20.95;69.22;101602.41;5116032;28;20051;-72
2021/06/25 08:33:01;;;;;;;29.85;21.73;;;20.60;99.90;;;20.88;69.31;101596.41;5115743;28;20071;-72
2021/06/25 08:35:30;;;;;;;34.67;21.83;;;20.50;99.90;;;20.83;68.99;101600.19;5115978;28;20382;-72
2021/06/25 08:37:59;;;;;;;33.22;22.75;;;20.50;99.90;;;20.71;68.98;101600.59;5115643;28;20040;-72
2021/06/25 08:40:28;;;;;;;33.70;23.13;;;20.30;99.90;;;20.46;69.80;101574.53;5115284;28;20042;-72
2021/06/25 08:42:57;;;;;;;37.55;24.90;;;20.20;99.90;;;20.54;70.42;101591.28;5115678;28;20082;-72
2021/06/25 08:45:26;;;;;;;37.58;25.20;;;20.20;99.90;;;20.58;70.76;101601.00;5115498;28;20044;-72
2021/06/25 08:47:55;;;;;;;34.85;23.50;;;20.20;99.90;;;20.62;71.27;101593.72;5115247;28;20044;-72
2021/06/25 08:50:25;;;;;;;32.92;24.67;;;20.20;99.90;;;20.45;70.57;101586.25;5115353;28;20126;-72
2021/06/25 08:52:55;;;;;;;30.98;23.42;;;20.10;99.90;;;20.47;70.86;101581.69;5115254;28;20488;-72
2021/06/25 08:55:24;;;;;;;34.53;23.70;;;20.10;99.90;;;20.53;70.91;101594.94;5115529;28;20101;-72
2021/06/25 08:57:52;;;;;;;37.10;24.65;;;20.10;99.90;;;20.51;70.95;101586.03;5115026;28;20051;-72
2021/06/25 09:00:23;;;;;;;33.00;23.55;;;20.10;99.90;;;20.38;71.26;101583.81;5115094;28;20044;-72
2021/06/25 09:02:51;;;;;;;;;;;20.00;99.90;;;20.43;71.15;101590.78;5097540;28;20047;-72
2021/06/25 09:05:29;;;;;;;37.13;25.30;;;20.00;99.90;;;20.33;71.38;101578.56;5115062;28;19931;-72
2021/06/25 09:07:59;;;;;;;37.35;25.92;;;20.00;99.90;;;20.43;71.70;101596.16;5114991;28;20538;-72
2021/06/25 09:10:35;;;;;;;36.57;25.70;;;20.00;99.90;;;20.23;71.65;101581.59;5114942;28;20040;-72
2021/06/25 09:13:09;;;;;;;37.95;26.05;;;19.90;99.90;;;20.23;72.63;101593.22;5114901;28;20305;-72
2021/06/25 09:15:41;;;;;;;37.10;25.90;;;19.90;99.90;;;20.26;72.95;101590.47;5114613;28;20485;-72
2021/06/25 09:18:11;;;;;;;38.38;27.23;;;19.90;99.90;;;20.19;72.79;101588.88;5114863;28;20044;-72
2021/06/25 09:20:44;;;;;;;34.55;26.05;;;19.80;99.90;;;20.01;73.25;101593.94;5114411;28;20489;-72
2021/06/25 09:23:15;;;;;;;39.20;27.58;;;19.70;99.90;;;20.03;73.62;101587.63;5114743;28;20062;-71
2021/06/25 09:25:56;;;;;;;36.58;27.70;;;19.60;99.90;;;20.09;73.62;101598.13;5114573;28;20096;-72
2021/06/25 09:28:30;;;;;;;37.38;27.55;;;19.60;99.90;;;20.06;73.94;101602.72;5114657;28;20085;-72
2021/06/25 09:30:58;;;;;;;36.17;26.15;;;19.70;99.90;;;20.03;74.18;101590.28;5114303;28;20066;-72
2021/06/25 09:33:27;;;;;;;36.45;25.02;;;19.60;99.90;;;19.87;74.25;101590.81;5114491;28;20052;-72
2021/06/25 09:35:58;;;;;;;35.83;25.83;;;19.50;99.90;;;19.89;74.29;101589.84;5114155;28;20451;-72
2021/06/25 09:38:39;;;;;;;31.58;24.70;;;19.50;99.90;;;19.86;74.65;101594.44;5114104;28;20493;-72
2021/06/25 09:41:19;;;;;;;33.38;24.00;;;19.40;99.90;;;19.93;75.08;101591.50;5114365;28;20127;-72
2021/06/25 09:44:00;;;;;;;27.77;23.42;;;19.50;99.90;;;19.84;75.00;101594.47;5114240;28;20096;-72
2021/06/25 09:46:30;;;;;;;27.48;23.25;;;19.50;99.90;;;19.78;74.90;101625.06;5114654;28;20054;-73
2021/06/25 09:49:02;;;;;;;30.80;23.05;;;19.40;99.90;;;19.79;74.72;101596.41;5114610;28;20152;-72
2021/06/25 09:51:33;;;;;;;29.67;24.33;;;19.40;99.90;;;19.88;74.89;101598.81;5113506;28;20503;-72
2021/06/25 09:54:15;;;;;;;32.80;24.35;;;19.50;99.90;;;19.85;75.14;101595.34;5114161;28;20040;-72
2021/06/25 09:56:49;;;;;;;31.58;24.67;;;19.50;99.90;;;19.88;74.71;101593.44;5114214;28;20058;-72
2021/06/25 09:59:34;;;;;;;28.95;24.23;;;19.50;99.90;;;19.89;74.73;101599.69;5114117;28;20043;-72
2021/06/25 10:02:31;;;;;;;28.25;23.45;;;19.50;99.90;;;19.75;74.44;101606.38;5114080;28;20055;-72
2021/06/25 10:05:12;;;;;;;26.33;22.08;;;19.40;99.90;;;19.70;74.09;101602.94;5095998;28;20051;-72
2021/06/25 10:07:42;;;;;;;;;;;19.30;99.90;;;19.48;74.22;101582.16;5114403;28;20047;-73
2021/06/25 10:10:11;;;;;;;23.55;20.17;;;19.30;99.90;;;19.59;74.27;101612.22;5113878;28;20329;-73
2021/06/25 10:12:43;;;;;;;29.42;21.40;;;19.20;99.90;;;19.53;74.84;101607.06;5113492;28;20565;-73
2021/06/25 10:15:14;;;;;;;23.92;21.20;;;19.20;99.90;;;19.45;74.93;101593.00;5095461;28;20051;-72
2021/06/25 10:17:43;;;;;;;24.00;21.38;;;19.10;99.90;;;19.49;74.87;101600.88;5113808;28;20105;-72
2021/06/25 10:20:14;;;;;;;28.00;21.52;;;19.10;99.90;;;19.48;75.40;101609.00;5113702;28;20096;-72
2021/06/25 10:22:51;;;;;;;28.33;20.95;;;19.10;99.90;;;19.36;75.71;101610.22;5113500;28;20048;-73